createdAt,value
2024-04-24T00:01:49.948Z,4.89
2024-04-24T00:04:17.721Z,4.89
2024-04-24T00:06:45.338Z,4.86
2024-04-24T00:09:13.504Z,4.82
2024-04-24T00:11:41.156Z,4.76
2024-04-24T00:14:08.888Z,4.72
2024-04-24T00:16:36.887Z,4.74
2024-04-24T00:19:04.371Z,4.71
2024-04-24T00:21:31.966Z,4.66
2024-04-24T00:23:59.480Z,4.60
2024-04-24T00:26:26.995Z,4.56
2024-04-24T00:28:54.641Z,4.51
2024-04-24T00:31:22.288Z,4.47
2024-04-24T00:33:50.034Z,4.44
2024-04-24T00:36:17.599Z,4.36
2024-04-24T00:38:45.127Z,4.28
2024-04-24T00:41:12.728Z,4.25
2024-04-24T00:43:40.311Z,4.22
2024-04-24T00:46:09.949Z,4.16
2024-04-24T00:48:38.895Z,4.09
2024-04-24T00:51:06.689Z,4.03
2024-04-24T00:53:35.014Z,3.96
2024-04-24T00:56:07.111Z,3.90
2024-04-24T00:58:38.762Z,3.86
2024-04-24T01:01:07.136Z,3.80
2024-04-24T01:03:34.638Z,3.77
2024-04-24T01:06:02.249Z,3.74
2024-04-24T01:08:30.141Z,3.72
2024-04-24T01:10:59.262Z,3.70
2024-04-24T01:13:27.545Z,3.66
2024-04-24T01:16:06.313Z,3.60
2024-04-24T01:18:37.983Z,3.56
2024-04-24T01:21:06.951Z,3.51
2024-04-24T01:23:44.638Z,3.43
2024-04-24T01:26:42.901Z,3.37
2024-04-24T01:29:10.553Z,3.27
2024-04-24T01:31:38.379Z,3.22
2024-04-24T01:34:05.980Z,3.15
2024-04-24T01:36:33.508Z,3.08
2024-04-24T01:39:01.130Z,3.04
2024-04-24T01:41:28.840Z,2.95
2024-04-24T01:43:56.452Z,2.86
2024-04-24T01:46:23.940Z,2.79
2024-04-24T01:48:51.645Z,2.74
2024-04-24T01:51:19.216Z,2.71
2024-04-24T01:53:46.831Z,2.70
2024-04-24T01:56:14.715Z,2.69
2024-04-24T01:58:42.208Z,2.67
2024-04-24T02:01:09.874Z,2.67
2024-04-24T02:03:37.552Z,2.68
2024-04-24T02:06:05.435Z,2.66
2024-04-24T02:08:35.653Z,2.63
2024-04-24T02:11:03.445Z,2.64
2024-04-24T02:13:31.019Z,2.66
2024-04-24T02:15:58.595Z,2.66
2024-04-24T02:18:26.281Z,2.69
2024-04-24T02:20:53.905Z,2.70
2024-04-24T02:23:21.977Z,2.72
2024-04-24T02:25:50.234Z,2.72
2024-04-24T02:28:17.856Z,2.76
2024-04-24T02:30:45.495Z,2.78
2024-04-24T02:33:13.207Z,2.79
2024-04-24T02:35:40.836Z,2.79
2024-04-24T02:38:09.187Z,2.80
2024-04-24T02:40:36.735Z,2.79
2024-04-24T02:43:04.424Z,2.78
2024-04-24T02:45:32.043Z,2.79
2024-04-24T02:47:59.661Z,2.76
2024-04-24T02:50:28.576Z,2.73
2024-04-24T02:52:56.434Z,2.69
2024-04-24T02:55:23.967Z,2.69
2024-04-24T02:57:51.645Z,2.68
2024-04-24T03:00:19.324Z,2.69
2024-04-24T03:02:46.974Z,2.71
2024-04-24T03:05:14.826Z,2.71
2024-04-24T03:07:42.394Z,2.71
2024-04-24T03:10:09.971Z,2.69
2024-04-24T03:12:37.503Z,2.67
2024-04-24T03:15:05.499Z,2.67
2024-04-24T03:17:33.314Z,2.65
2024-04-24T03:20:01.110Z,2.65
2024-04-24T03:22:30.275Z,2.67
2024-04-24T03:24:57.813Z,2.64
2024-04-24T03:27:25.318Z,2.62
2024-04-24T03:29:53.004Z,2.58
2024-04-24T03:32:20.534Z,2.55
2024-04-24T03:34:48.168Z,2.56
2024-04-24T03:37:15.765Z,2.56
2024-04-24T03:39:43.349Z,2.58
2024-04-24T03:42:10.895Z,2.59
2024-04-24T03:44:38.531Z,2.60
2024-04-24T03:47:06.451Z,2.63
2024-04-24T03:49:34.025Z,2.63
2024-04-24T03:52:01.576Z,2.61
2024-04-24T03:54:29.120Z,2.65
2024-04-24T03:56:58.096Z,2.66
2024-04-24T03:59:25.885Z,2.64
2024-04-24T04:01:53.578Z,2.67
2024-04-24T04:04:21.276Z,2.71
2024-04-24T04:06:48.928Z,2.76
2024-04-24T04:09:16.454Z,2.78
2024-04-24T04:11:44.097Z,2.79
2024-04-24T04:14:11.706Z,2.84
2024-04-24T04:16:39.392Z,2.86
2024-04-24T04:19:07.075Z,2.88
2024-04-24T04:21:34.568Z,2.93
2024-04-24T04:24:02.130Z,2.99
2024-04-24T04:26:29.748Z,3.08
2024-04-24T04:28:57.401Z,3.16
2024-04-24T04:31:24.972Z,3.23
2024-04-24T04:33:53.068Z,3.38
2024-04-24T04:36:20.697Z,3.60
2024-04-24T04:38:48.308Z,3.87
2024-04-24T04:41:15.814Z,4.14
2024-04-24T04:43:43.382Z,4.45
2024-04-24T04:46:10.906Z,4.82
2024-04-24T04:48:38.606Z,4.98
2024-04-24T04:51:06.565Z,5.06
2024-04-24T04:53:34.380Z,5.05
2024-04-24T04:56:02.133Z,4.90
2024-04-24T04:58:29.684Z,4.89
2024-04-24T05:00:57.426Z,4.81
2024-04-24T05:03:25.194Z,4.86
2024-04-24T05:05:54.370Z,4.86
2024-04-24T05:08:22.004Z,4.90
2024-04-24T05:10:49.916Z,4.95
2024-04-24T05:13:18.586Z,4.99
2024-04-24T05:15:46.167Z,4.99
2024-04-24T05:18:14.538Z,4.98
2024-04-24T05:20:42.272Z,5.03
2024-04-24T05:23:09.976Z,5.11
2024-04-24T05:25:38.518Z,5.33
2024-04-24T05:28:28.017Z,5.45
2024-04-24T05:30:55.617Z,5.65
2024-04-24T05:33:23.314Z,5.67
2024-04-24T05:35:50.937Z,5.72
2024-04-24T05:38:18.708Z,5.85
2024-04-24T05:40:46.378Z,6.03
2024-04-24T05:43:16.593Z,6.19
2024-04-24T05:45:44.497Z,6.36
2024-04-24T05:48:12.419Z,6.65
2024-04-24T05:50:40.038Z,6.90
2024-04-24T05:53:07.768Z,7.09
2024-04-24T05:55:35.790Z,7.15
2024-04-24T05:58:04.157Z,7.33
2024-04-24T06:00:31.655Z,7.29
2024-04-24T06:03:00.253Z,7.21
2024-04-24T06:05:27.962Z,7.18
2024-04-24T06:07:56.459Z,7.19
2024-04-24T06:10:24.034Z,7.25
2024-04-24T06:12:51.613Z,7.24
2024-04-24T06:15:19.322Z,7.23
2024-04-24T06:17:46.965Z,7.31
2024-04-24T06:20:17.888Z,7.24
2024-04-24T06:22:45.969Z,7.33
2024-04-24T06:25:13.793Z,7.52
2024-04-24T06:27:41.458Z,7.78
2024-04-24T06:30:09.175Z,8.01
2024-04-24T06:32:36.961Z,7.95
2024-04-24T06:35:05.143Z,8.11
2024-04-24T06:37:32.721Z,8.21
2024-04-24T06:40:00.354Z,8.39
2024-04-24T06:42:29.565Z,8.54
2024-04-24T06:44:57.120Z,8.65
2024-04-24T06:47:24.826Z,8.80
2024-04-24T06:49:52.493Z,8.79
2024-04-24T06:52:19.999Z,8.97
2024-04-24T06:54:47.576Z,9.10
2024-04-24T06:57:15.183Z,9.28
2024-04-24T06:59:43.043Z,9.54
2024-04-24T07:02:10.720Z,9.63
2024-04-24T07:04:39.076Z,10.01
2024-04-24T07:07:06.632Z,9.95
2024-04-24T07:09:34.554Z,10.13
2024-04-24T07:12:02.340Z,10.22
2024-04-24T07:14:30.288Z,10.32
2024-04-24T07:16:57.928Z,10.42
2024-04-24T07:19:25.607Z,10.96
2024-04-24T07:21:53.145Z,11.40
2024-04-24T07:24:20.772Z,11.52
2024-04-24T07:26:48.347Z,11.96
2024-04-24T07:29:15.936Z,11.78
2024-04-24T07:31:43.541Z,11.67
2024-04-24T07:34:11.103Z,11.72
2024-04-24T07:36:38.817Z,11.41
2024-04-24T07:39:06.459Z,11.63
2024-04-24T07:41:34.014Z,11.72
2024-04-24T07:44:01.669Z,12.04
2024-04-24T07:46:29.258Z,12.50
2024-04-24T07:48:56.902Z,12.69
2024-04-24T07:51:24.511Z,12.67
2024-04-24T07:53:52.217Z,12.69
2024-04-24T07:56:19.865Z,12.57
2024-04-24T07:58:47.410Z,12.39
2024-04-24T08:01:16.899Z,12.23
2024-04-24T08:03:44.464Z,10.92
2024-04-24T08:06:12.102Z,9.95
2024-04-24T08:08:40.531Z,9.51
2024-04-24T08:11:08.660Z,9.42
2024-04-24T08:13:36.350Z,9.08
2024-04-24T08:16:04.114Z,9.26
2024-04-24T08:18:31.708Z,8.85
2024-04-24T08:20:59.365Z,8.76
2024-04-24T08:23:27.573Z,8.54
2024-04-24T08:25:56.024Z,8.59
2024-04-24T08:28:33.234Z,8.73
2024-04-24T08:31:08.752Z,8.89
2024-04-24T08:33:37.461Z,8.93
2024-04-24T08:36:08.024Z,8.92
2024-04-24T08:38:35.755Z,9.01
2024-04-24T08:41:10.891Z,9.16
2024-04-24T08:43:43.311Z,9.00
2024-04-24T08:46:12.108Z,8.87
2024-04-24T08:48:41.528Z,8.78
2024-04-24T08:51:10.941Z,8.82
2024-04-24T08:53:54.573Z,9.23
2024-04-24T08:56:28.176Z,9.69
2024-04-24T08:59:01.171Z,9.96
2024-04-24T09:01:33.431Z,9.93
2024-04-24T09:04:09.872Z,10.69
2024-04-24T09:06:39.818Z,10.90
2024-04-24T09:09:09.161Z,10.78
2024-04-24T09:11:37.006Z,10.82
2024-04-24T09:14:05.395Z,10.61
2024-04-24T09:16:36.428Z,10.96
2024-04-24T09:19:05.750Z,11.22
2024-04-24T09:21:33.747Z,11.18
2024-04-24T09:24:01.631Z,11.50
2024-04-24T09:26:29.894Z,12.03
2024-04-24T09:28:57.628Z,12.63
2024-04-24T09:31:25.272Z,12.65
2024-04-24T09:33:52.813Z,12.30
2024-04-24T09:36:20.473Z,13.29
2024-04-24T09:38:48.072Z,13.65
2024-04-24T09:41:16.055Z,13.52
2024-04-24T09:43:44.220Z,13.28
2024-04-24T09:46:13.247Z,12.75
2024-04-24T09:48:41.306Z,12.62
2024-04-24T09:51:11.568Z,12.62
2024-04-24T09:53:39.636Z,12.70
2024-04-24T09:56:22.348Z,12.39
2024-04-24T09:58:56.630Z,11.67
2024-04-24T10:01:27.649Z,10.93
2024-04-24T10:03:58.642Z,10.37
2024-04-24T10:06:28.835Z,10.14
2024-04-24T10:08:59.290Z,10.51
2024-04-24T10:11:31.097Z,10.67
2024-04-24T10:14:00.438Z,10.62
2024-04-24T10:16:28.560Z,10.38
2024-04-24T10:18:57.407Z,10.40
2024-04-24T10:21:25.301Z,10.50
2024-04-24T10:23:53.405Z,10.48
2024-04-24T10:26:22.309Z,10.74
2024-04-24T10:28:51.063Z,10.62
2024-04-24T10:31:20.037Z,10.79
2024-04-24T10:33:47.994Z,11.00
2024-04-24T10:36:15.806Z,11.09
2024-04-24T10:38:44.543Z,10.67
2024-04-24T10:41:12.385Z,11.12
2024-04-24T10:43:42.899Z,11.61
2024-04-24T10:46:10.688Z,11.69
2024-04-24T10:48:45.014Z,12.88
2024-04-24T10:51:12.711Z,13.04
2024-04-24T10:53:55.991Z,13.00
2024-04-24T10:56:36.474Z,12.49
2024-04-24T10:59:07.362Z,12.10
2024-04-24T11:01:42.819Z,11.96
2024-04-24T11:04:19.267Z,11.65
2024-04-24T11:06:46.930Z,11.10
2024-04-24T11:09:14.791Z,10.96
2024-04-24T11:11:43.030Z,10.65
2024-04-24T11:14:13.585Z,10.72
2024-04-24T11:16:55.779Z,10.63
2024-04-24T11:19:23.955Z,10.79
2024-04-24T11:21:51.577Z,10.81
2024-04-24T11:24:48.444Z,10.88
2024-04-24T11:27:16.202Z,10.74
2024-04-24T11:29:43.892Z,10.59
2024-04-24T11:32:12.538Z,10.71
2024-04-24T11:34:41.204Z,10.97
2024-04-24T11:37:09.252Z,10.71
2024-04-24T11:39:37.171Z,10.61
2024-04-24T11:42:05.028Z,10.21
2024-04-24T11:44:34.030Z,9.75
2024-04-24T11:47:01.853Z,9.81
2024-04-24T11:49:29.606Z,9.76
2024-04-24T11:51:57.562Z,10.03
2024-04-24T11:54:28.968Z,10.43
2024-04-24T11:57:01.223Z,10.43
2024-04-24T11:59:31.108Z,10.50
2024-04-24T12:01:58.993Z,10.18
2024-04-24T12:04:26.775Z,9.27
2024-04-24T12:06:54.602Z,9.29
2024-04-24T12:09:22.151Z,9.32
2024-04-24T12:11:50.881Z,9.24
2024-04-24T12:14:18.676Z,8.65
2024-04-24T12:16:46.348Z,8.89
2024-04-24T12:19:13.969Z,9.26
2024-04-24T12:21:43.113Z,9.84
2024-04-24T12:24:10.915Z,10.29
2024-04-24T12:26:38.540Z,10.10
2024-04-24T12:29:06.120Z,10.20
2024-04-24T12:31:33.815Z,10.21
2024-04-24T12:34:01.701Z,10.32
2024-04-24T12:36:29.334Z,10.64
2024-04-24T12:38:56.956Z,11.25
2024-04-24T12:41:24.708Z,11.43
2024-04-24T12:43:52.433Z,11.28
2024-04-24T12:46:20.080Z,11.47
2024-04-24T12:48:54.554Z,10.89
2024-04-24T12:51:26.081Z,10.22
2024-04-24T12:53:53.925Z,10.61
2024-04-24T12:56:21.542Z,10.87
2024-04-24T12:58:51.088Z,11.35
2024-04-24T13:01:19.961Z,12.09
2024-04-24T13:03:48.770Z,12.44
2024-04-24T13:06:23.963Z,12.75
2024-04-24T13:08:52.197Z,12.73
2024-04-24T13:11:20.048Z,12.72
2024-04-24T13:13:47.736Z,12.59
2024-04-24T13:16:15.473Z,12.48
2024-04-24T13:18:44.121Z,12.52
2024-04-24T13:21:11.824Z,12.29
2024-04-24T13:23:39.381Z,12.35
2024-04-24T13:26:06.955Z,12.52
2024-04-24T13:28:34.486Z,12.52
2024-04-24T13:31:05.649Z,12.63
2024-04-24T13:33:35.211Z,12.76
2024-04-24T13:36:02.925Z,12.73
2024-04-24T13:38:30.482Z,12.44
2024-04-24T13:41:05.154Z,12.56
2024-04-24T13:43:32.917Z,12.55
2024-04-24T13:46:00.529Z,12.36
2024-04-24T13:48:31.462Z,12.22
2024-04-24T13:51:00.583Z,11.66
2024-04-24T13:53:28.216Z,11.36
2024-04-24T13:55:55.957Z,11.41
2024-04-24T13:58:23.600Z,11.24
2024-04-24T14:00:51.591Z,10.75
2024-04-24T14:03:19.264Z,10.42
2024-04-24T14:05:50.877Z,10.11
2024-04-24T14:08:18.585Z,9.91
2024-04-24T14:10:46.720Z,9.30
2024-04-24T14:13:14.438Z,9.63
2024-04-24T14:15:42.288Z,9.84
2024-04-24T14:18:09.934Z,9.78
2024-04-24T14:20:37.701Z,10.14
2024-04-24T14:23:06.047Z,10.47
2024-04-24T14:25:35.446Z,10.32
2024-04-24T14:28:03.873Z,10.41
2024-04-24T14:30:31.492Z,10.65
2024-04-24T14:32:59.333Z,10.53
2024-04-24T14:35:27.248Z,10.54
2024-04-24T14:37:55.020Z,10.25
2024-04-24T14:40:22.628Z,10.23
2024-04-24T14:42:50.253Z,10.25
2024-04-24T14:45:17.958Z,10.33
2024-04-24T14:47:46.725Z,10.27
2024-04-24T14:50:14.725Z,10.31
2024-04-24T14:52:42.515Z,10.33
2024-04-24T14:55:10.685Z,10.13
2024-04-24T14:57:38.372Z,10.22
2024-04-24T15:00:06.725Z,9.95
2024-04-24T15:02:34.310Z,9.56
2024-04-24T15:05:02.178Z,9.58
2024-04-24T15:07:29.841Z,9.22
2024-04-24T15:09:57.785Z,9.15
2024-04-24T15:12:25.419Z,8.82
2024-04-24T15:14:53.093Z,8.54
2024-04-24T15:17:20.779Z,8.81
2024-04-24T15:19:48.511Z,8.61
2024-04-24T15:22:16.239Z,7.99
2024-04-24T15:24:43.836Z,8.24
2024-04-24T15:27:11.474Z,8.08
2024-04-24T15:29:39.034Z,8.00
2024-04-24T15:32:06.785Z,7.74
2024-04-24T15:34:35.065Z,8.17
2024-04-24T15:37:05.494Z,8.13
2024-04-24T15:39:33.430Z,8.16
2024-04-24T15:42:00.987Z,8.43
2024-04-24T15:44:28.898Z,8.37
2024-04-24T15:46:56.542Z,8.37
2024-04-24T15:49:24.137Z,8.30
2024-04-24T15:51:51.702Z,8.26
2024-04-24T15:54:19.226Z,8.25
2024-04-24T15:56:46.760Z,8.21
2024-04-24T15:59:14.409Z,8.19
2024-04-24T16:01:42.136Z,8.10
2024-04-24T16:04:09.798Z,8.05
2024-04-24T16:06:37.437Z,8.24
2024-04-24T16:09:04.996Z,8.35
2024-04-24T16:11:32.739Z,8.20
2024-04-24T16:14:00.320Z,8.22
2024-04-24T16:16:28.051Z,8.35
2024-04-24T16:18:55.710Z,8.66
2024-04-24T16:21:23.475Z,8.89
2024-04-24T16:23:51.172Z,9.07
2024-04-24T16:26:18.874Z,9.24
2024-04-24T16:28:46.625Z,9.25
2024-04-24T16:31:14.660Z,9.37
2024-04-24T16:33:42.562Z,9.26
2024-04-24T16:36:11.712Z,9.06
2024-04-24T16:38:39.366Z,9.08
2024-04-24T16:41:08.131Z,9.30
2024-04-24T16:43:35.757Z,9.52
2024-04-24T16:46:03.415Z,9.49
2024-04-24T16:48:31.256Z,9.32
2024-04-24T16:50:58.878Z,9.36
2024-04-24T16:53:26.668Z,9.33
2024-04-24T16:55:54.268Z,9.02
2024-04-24T16:58:21.755Z,8.96
2024-04-24T17:00:49.560Z,8.95
2024-04-24T17:03:17.388Z,9.01
2024-04-24T17:05:45.042Z,9.13
2024-04-24T17:08:12.675Z,9.11
2024-04-24T17:10:41.616Z,9.16
2024-04-24T17:13:09.204Z,9.00
2024-04-24T17:15:36.893Z,8.95
2024-04-24T17:18:04.852Z,8.88
2024-04-24T17:20:32.747Z,8.64
2024-04-24T17:23:00.626Z,8.43
2024-04-24T17:25:28.425Z,8.30
2024-04-24T17:27:56.009Z,8.09
2024-04-24T17:30:23.620Z,7.84
2024-04-24T17:32:52.137Z,7.50
2024-04-24T17:35:20.100Z,7.26
2024-04-24T17:37:47.784Z,7.10
2024-04-24T17:40:15.494Z,6.86
2024-04-24T17:42:43.594Z,6.70
2024-04-24T17:45:11.168Z,6.54
2024-04-24T17:47:38.874Z,6.39
2024-04-24T17:50:07.420Z,6.09
2024-04-24T17:52:36.708Z,6.15
2024-04-24T17:55:05.528Z,6.18
2024-04-24T17:57:34.080Z,6.17
2024-04-24T18:00:02.339Z,6.14
2024-04-24T18:02:32.038Z,6.12
2024-04-24T18:05:01.931Z,6.06
2024-04-24T18:07:29.623Z,6.11
2024-04-24T18:09:57.254Z,6.06
2024-04-24T18:12:24.898Z,6.04
2024-04-24T18:14:52.474Z,6.02
2024-04-24T18:17:21.174Z,5.94
2024-04-24T18:19:48.724Z,5.82
2024-04-24T18:22:16.415Z,5.74
2024-04-24T18:24:44.094Z,5.66
2024-04-24T18:27:11.776Z,5.50
2024-04-24T18:29:39.358Z,5.36
2024-04-24T18:32:07.351Z,5.28
2024-04-24T18:34:34.946Z,5.18
2024-04-24T18:37:02.588Z,5.16
2024-04-24T18:39:30.377Z,5.15
2024-04-24T18:41:58.208Z,5.12
2024-04-24T18:44:25.879Z,5.07
2024-04-24T18:46:53.543Z,5.03
2024-04-24T18:49:21.180Z,4.91
2024-04-24T18:51:48.835Z,4.85
2024-04-24T18:54:16.409Z,4.80
2024-04-24T18:56:44.226Z,4.76
2024-04-24T18:59:12.176Z,4.66
2024-04-24T19:01:39.763Z,4.65
2024-04-24T19:04:13.351Z,4.63
2024-04-24T19:06:41.145Z,4.63
2024-04-24T19:09:11.863Z,4.55
2024-04-24T19:11:39.577Z,4.47
2024-04-24T19:14:07.226Z,4.41
2024-04-24T19:16:37.424Z,4.34
2024-04-24T19:19:05.672Z,4.31
2024-04-24T19:21:33.216Z,4.20
2024-04-24T19:24:00.822Z,4.10
2024-04-24T19:26:29.803Z,4.03
2024-04-24T19:28:57.707Z,4.01
2024-04-24T19:31:32.501Z,3.98
2024-04-24T19:34:01.430Z,3.86
2024-04-24T19:36:28.943Z,3.82
2024-04-24T19:38:57.071Z,3.80
2024-04-24T19:41:24.660Z,3.80
2024-04-24T19:43:52.238Z,3.66
2024-04-24T19:46:19.847Z,3.53
2024-04-24T19:48:47.423Z,3.50
2024-04-24T19:51:17.853Z,3.52
2024-04-24T19:53:45.602Z,3.57
2024-04-24T19:56:13.212Z,3.56
2024-04-24T19:58:40.914Z,3.59
2024-04-24T20:01:10.029Z,3.59
2024-04-24T20:03:39.051Z,3.58
2024-04-24T20:06:08.134Z,3.58
2024-04-24T20:08:36.554Z,3.63
2024-04-24T20:11:08.119Z,3.65
2024-04-24T20:13:36.617Z,3.62
2024-04-24T20:16:08.594Z,3.59
2024-04-24T20:18:39.294Z,3.60
2024-04-24T20:21:16.852Z,3.59
2024-04-24T20:23:44.781Z,3.59
2024-04-24T20:26:25.225Z,3.60
2024-04-24T20:28:53.002Z,3.60
2024-04-24T20:31:27.626Z,3.61
2024-04-24T20:33:57.733Z,3.58
2024-04-24T20:36:27.661Z,3.59
2024-04-24T20:38:56.823Z,3.50
2024-04-24T20:41:26.195Z,3.48
2024-04-24T20:43:53.881Z,3.50
2024-04-24T20:46:21.536Z,3.43
2024-04-24T20:48:49.425Z,3.44
2024-04-24T20:51:16.986Z,3.42
2024-04-24T20:53:44.734Z,3.49
2024-04-24T20:56:18.616Z,3.51
2024-04-24T20:58:46.463Z,3.57
2024-04-24T21:01:14.715Z,3.54
2024-04-24T21:03:42.324Z,3.54
2024-04-24T21:06:11.490Z,3.57
2024-04-24T21:08:39.754Z,3.57
2024-04-24T21:11:09.050Z,3.58
2024-04-24T21:13:37.756Z,3.62
2024-04-24T21:16:10.922Z,3.66
2024-04-24T21:18:38.678Z,3.66
2024-04-24T21:21:06.298Z,3.73
2024-04-24T21:23:33.925Z,3.74
2024-04-24T21:26:02.044Z,3.76
2024-04-24T21:28:33.824Z,3.79
2024-04-24T21:31:01.819Z,3.83
2024-04-24T21:33:31.001Z,3.85
2024-04-24T21:36:05.416Z,3.82
2024-04-24T21:38:35.548Z,3.81
2024-04-24T21:41:05.346Z,3.78
2024-04-24T21:43:33.412Z,3.83
2024-04-24T21:46:09.659Z,3.87
2024-04-24T21:48:37.346Z,3.86
2024-04-24T21:51:05.174Z,3.89
2024-04-24T21:53:33.499Z,3.90
2024-04-24T21:56:01.139Z,3.89
2024-04-24T21:58:28.832Z,3.84
2024-04-24T22:00:56.538Z,3.82
2024-04-24T22:03:24.567Z,3.83
2024-04-24T22:05:52.178Z,3.78
2024-04-24T22:08:19.785Z,3.83
2024-04-24T22:10:47.353Z,3.75
2024-04-24T22:13:14.980Z,3.75
2024-04-24T22:15:42.544Z,3.70
2024-04-24T22:18:14.279Z,3.62
2024-04-24T22:20:42.239Z,3.52
2024-04-24T22:23:09.814Z,3.46
2024-04-24T22:25:37.403Z,3.42
2024-04-24T22:28:05.218Z,3.44
2024-04-24T22:30:32.903Z,3.38
2024-04-24T22:33:00.610Z,3.31
2024-04-24T22:35:28.890Z,3.19
2024-04-24T22:37:56.472Z,3.15
2024-04-24T22:40:24.160Z,3.17
2024-04-24T22:42:51.825Z,3.15
2024-04-24T22:45:19.442Z,3.13
2024-04-24T22:47:47.352Z,3.08
2024-04-24T22:50:15.074Z,3.05
2024-04-24T22:52:42.641Z,2.99
2024-04-24T22:55:10.325Z,2.95
2024-04-24T22:57:37.859Z,2.95
2024-04-24T23:00:05.860Z,2.97
2024-04-24T23:02:33.595Z,2.96
2024-04-24T23:05:01.196Z,2.94
2024-04-24T23:07:28.786Z,2.93
2024-04-24T23:09:56.404Z,2.91
2024-04-24T23:12:24.015Z,2.91
2024-04-24T23:14:51.538Z,2.83
2024-04-24T23:17:19.141Z,2.86
2024-04-24T23:19:46.870Z,2.83
2024-04-24T23:22:14.366Z,2.78
2024-04-24T23:24:42.045Z,2.75
2024-04-24T23:27:09.550Z,2.64
2024-04-24T23:29:37.242Z,2.64
2024-04-24T23:32:05.183Z,2.60
2024-04-24T23:34:32.843Z,2.54
2024-04-24T23:37:00.410Z,2.54
2024-04-24T23:39:27.969Z,2.50
2024-04-24T23:41:55.441Z,2.51
2024-04-24T23:44:23.084Z,2.46
2024-04-24T23:46:50.655Z,2.44
2024-04-24T23:49:18.287Z,2.45
2024-04-24T23:51:45.774Z,2.45
2024-04-24T23:54:13.406Z,2.49
2024-04-24T23:56:41.086Z,2.48
2024-04-24T23:59:08.702Z,2.50
